Sd416 Nippon — SKPF — position and weather

sailwx.info

Track history (hours):
 
Tides and Currents Weather Stations Pressure Air Temp Water Temp Dewpoint Dewpoint Depression Visibility Wind Speed Wind Dir Waves Ship Positions

Sd416 Nippon

Last reported at 2018-May-22 12:00 UTC. Time now 2018-May-22 12:01 UTC.
Position N 58°51' E 011°05'.

Length 17 m; draft 2.5 m.

Type: Fishing. MMSI: 266163000.

Date/timePositionNaut miles runAvg speedWind from/ knotsBaromVisibWave heightAir tempDewpointWater temp
2018-May-22 12:00N 58°51' E 011°05'4 7.7
2018-May-22 11:30N 58°54' E 011°05'3 6.0
2018-May-22 11:00N 58°56' E 011°10'0 0.0
2018-May-22 10:30N 58°56' E 011°10'0 0.0
2018-May-22 10:00N 58°56' E 011°10'1 2.0
2018-May-22 09:30N 58°56' E 011°08'4 7.0
2018-May-22 09:00N 58°55' E 011°02'4 7.5
2018-May-22 08:30N 58°54' E 010°55'4 8.0
2018-May-22 08:00N 58°51' E 010°49'3 5.7
2018-May-22 07:30N 58°49' E 010°45'4 7.1
2018-May-22 07:00N 58°47' E 010°40'3 6.6
2018-May-22 06:30N 58°44' E 010°36'3 6.4
2018-May-22 06:00N 58°42' E 010°32'3 5.7
2018-May-22 05:30N 58°40' E 010°28'0 0.4
2018-May-22 05:00N 58°40' E 010°29'1 1.5
2018-May-22 04:30N 58°39' E 010°29'1 1.6
2018-May-22 04:00N 58°39' E 010°30'1 1.6
2018-May-22 03:30N 58°38' E 010°31'1 1.6
2018-May-22 03:00N 58°37' E 010°32'1 1.6
2018-May-22 02:30N 58°37' E 010°33'1 1.6
2018-May-22 02:00N 58°36' E 010°34'1 1.5
2018-May-22 01:30N 58°35' E 010°35'1 1.6
2018-May-22 01:00N 58°35' E 010°35'1 1.6
2018-May-22 00:30N 58°34' E 010°36'1 1.6
2018-May-22 00:00N 58°34' E 010°37'1 1.6
2018-May-21 23:30N 58°33' E 010°38'1 1.6
2018-May-21 23:00N 58°32' E 010°39'1 1.6
2018-May-21 22:30N 58°32' E 010°40'1 1.6
2018-May-21 22:00N 58°31' E 010°41'1 1.6
2018-May-21 21:30N 58°30' E 010°41'1 1.5
2018-May-21 21:00N 58°29' E 010°41'1 1.7
2018-May-21 20:27N 58°28' E 010°42'1 1.7
2018-May-21 20:00N 58°28' E 010°42'1 1.7
2018-May-21 19:30N 58°27' E 010°42'1 1.7
2018-May-21 19:00N 58°26' E 010°43'0 0.9
2018-May-21 18:30N 58°26' E 010°42'4 7.6
2018-May-21 18:00N 58°29' E 010°39'1 2.2
2018-May-21 17:30N 58°30' E 010°39'0 0.9
2018-May-21 17:00N 58°31' E 010°39'1 1.3
2018-May-21 16:30N 58°31' E 010°39'1 1.2
2018-May-21 16:00N 58°32' E 010°39'1 1.3
2018-May-21 15:30N 58°32' E 010°38'1 1.3
2018-May-21 14:57N 58°33' E 010°37'1 1.3
2018-May-21 14:30N 58°34' E 010°37'1 1.3
2018-May-21 13:59N 58°34' E 010°36'1 1.3
2018-May-21 13:29N 58°34' E 010°35'1 1.3
2018-May-21 13:00N 58°35' E 010°34'1 1.3
2018-May-21 12:30N 58°35' E 010°33'1 1.3
2018-May-21 12:00N 58°36' E 010°33'1 1.3
2018-May-21 11:30N 58°36' E 010°32'1 1.3
2018-May-21 11:00N 58°37' E 010°31'1 1.3
2018-May-21 10:30N 58°37' E 010°30'1 1.3
2018-May-21 10:00N 58°37' E 010°29'1 1.3
2018-May-21 09:30N 58°38' E 010°28'1 1.4
2018-May-21 09:00N 58°39' E 010°28'1 1.3
2018-May-21 08:30N 58°39' E 010°28'1 1.3
2018-May-21 08:00N 58°40' E 010°27'1 1.3
2018-May-21 07:30N 58°41' E 010°27'1 1.7
2018-May-21 07:00N 58°41' E 010°26'0 0.3
2018-May-21 06:30N 58°41' E 010°26'1 1.7
2018-May-21 06:00N 58°41' E 010°27'1 1.7
2018-May-21 05:30N 58°40' E 010°28'1 1.7
2018-May-21 05:00N 58°39' E 010°28'1 1.7
2018-May-21 04:30N 58°38' E 010°29'1 1.7
2018-May-21 04:00N 58°38' E 010°30'1 1.7
2018-May-21 03:30N 58°37' E 010°31'1 1.7
2018-May-21 03:00N 58°36' E 010°33'1 1.7
2018-May-21 02:30N 58°36' E 010°34'1 1.7
2018-May-21 02:00N 58°35' E 010°34'1 1.7
2018-May-21 01:30N 58°34' E 010°35'1 1.7
2018-May-21 01:00N 58°34' E 010°37'1 1.7
2018-May-21 00:30N 58°33' E 010°38'1 1.7
2018-May-21 00:00N 58°32' E 010°38'1 1.7
2018-May-20 23:30N 58°32' E 010°38'1 1.7
2018-May-20 23:00N 58°31' E 010°39'1 1.8
2018-May-20 22:30N 58°30' E 010°40'1 1.7
2018-May-20 22:00N 58°29' E 010°40'1 1.7
2018-May-20 21:30N 58°28' E 010°41'1 1.7
2018-May-20 20:55N 58°28' E 010°42'1 1.9
2018-May-20 20:25N 58°27' E 010°42'1 2.7
2018-May-20 19:59N 58°28' E 010°42'4 7.3
2018-May-20 19:30N 58°31' E 010°45'4 7.9
2018-May-20 19:00N 58°34' E 010°49'4 7.9
2018-May-20 18:30N 58°37' E 010°53'4 7.9
2018-May-20 18:00N 58°41' E 010°57'4 7.7
2018-May-20 17:30N 58°44' E 011°00'4 7.3
2018-May-20 17:00N 58°48' E 011°04'3 6.9
2018-May-20 16:30N 58°51' E 011°05'4 7.0
2018-May-20 16:00N 58°54' E 011°05'3 5.8
2018-May-20 15:29N 58°56' E 011°10'0 0.0
2018-May-20 15:00N 58°56' E 011°10'0 0.0
2018-May-20 14:30N 58°56' E 011°10'0 0.0
2018-May-20 14:00N 58°56' E 011°10'0 0.0
2018-May-20 13:30N 58°56' E 011°10'0 0.0
2018-May-20 13:00N 58°56' E 011°10'0 0.0
2018-May-20 12:30N 58°56' E 011°10'0 0.0
2018-May-20 11:59N 58°56' E 011°10'0 0.0
2018-May-20 11:30N 58°56' E 011°10'0 0.0
2018-May-20 11:00N 58°56' E 011°10'0 0.0
2018-May-20 10:30N 58°56' E 011°10'0 0.0
2018-May-20 10:00N 58°56' E 011°10'0 0.0
2018-May-20 09:30N 58°56' E 011°10'0 0.0
2018-May-20 09:00N 58°56' E 011°10'0 0.0
2018-May-20 08:30N 58°56' E 011°10'0 0.0
2018-May-20 08:00N 58°56' E 011°10'0 0.0
2018-May-20 07:30N 58°56' E 011°10'0 0.0
2018-May-20 07:00N 58°56' E 011°10'0 0.0
2018-May-20 06:30N 58°56' E 011°10'0 0.0
2018-May-20 06:00N 58°56' E 011°10'0 0.0
2018-May-20 05:30N 58°56' E 011°10'0 0.0
2018-May-20 05:00N 58°56' E 011°10'0 0.0
2018-May-20 04:30N 58°56' E 011°10'0 0.0
2018-May-20 04:00N 58°56' E 011°10'0 0.0
2018-May-20 03:30N 58°56' E 011°10'0 0.0
2018-May-20 03:00N 58°56' E 011°10'0 0.0
2018-May-20 02:30N 58°56' E 011°10'0 0.0
2018-May-20 02:00N 58°56' E 011°10'0 0.0
2018-May-20 01:30N 58°56' E 011°10'0 0.0
2018-May-20 01:00N 58°56' E 011°10'0 0.0
2018-May-20 00:30N 58°56' E 011°10'0 0.0
2018-May-20 00:00N 58°56' E 011°10'0 0.0
2018-May-19 23:30N 58°56' E 011°10'0 0.0
2018-May-19 23:00N 58°56' E 011°10'0 0.0
2018-May-19 22:30N 58°56' E 011°10'0 0.0
2018-May-19 22:00N 58°56' E 011°10'0 0.0
2018-May-19 21:29N 58°56' E 011°10'0 0.0
2018-May-19 21:00N 58°56' E 011°10'0 0.0
2018-May-19 20:30N 58°56' E 011°10'0 0.0
2018-May-19 20:00N 58°56' E 011°10'0 0.0
2018-May-19 19:30N 58°56' E 011°10'0 0.0
2018-May-19 19:00N 58°56' E 011°10'0 0.0
2018-May-19 18:30N 58°56' E 011°10'0 0.0
2018-May-19 18:00N 58°56' E 011°10'0 0.0
2018-May-19 17:30N 58°56' E 011°10'0 0.0
2018-May-19 17:00N 58°56' E 011°10'0 0.0
2018-May-19 16:30N 58°56' E 011°10'0 0.0
2018-May-19 16:00N 58°56' E 011°10'0 0.0
2018-May-19 15:30N 58°56' E 011°10'0 0.0
2018-May-19 15:00N 58°56' E 011°10'0 0.0
2018-May-19 14:30N 58°56' E 011°10'0 0.0
2018-May-19 14:00N 58°56' E 011°10'0 0.0
2018-May-19 13:30N 58°56' E 011°10'0 0.0
2018-May-19 13:00N 58°56' E 011°10'0 0.0
2018-May-19 12:30N 58°56' E 011°10'0 0.0
2018-May-19 12:00N 58°56' E 011°10'0 0.0
2018-May-19 11:30N 58°56' E 011°10'0 0.0
2018-May-19 11:00N 58°56' E 011°10'0 0.0
2018-May-19 10:30N 58°56' E 011°10'0 0.0
2018-May-19 10:00N 58°56' E 011°10'0 0.0
2018-May-19 09:30N 58°56' E 011°10'0 0.0
2018-May-19 09:00N 58°56' E 011°10'0 0.0
2018-May-19 08:30N 58°56' E 011°10'0 0.0
2018-May-19 08:00N 58°56' E 011°10'0 0.0
2018-May-19 07:30N 58°56' E 011°10'0 0.0
2018-May-19 07:00N 58°56' E 011°10'0 0.0
2018-May-19 06:30N 58°56' E 011°10'0 0.0
2018-May-19 06:00N 58°56' E 011°10'0 0.0
2018-May-19 05:30N 58°56' E 011°10'0 0.0
2018-May-19 05:00N 58°56' E 011°10'0 0.0
2018-May-19 04:30N 58°56' E 011°10'0 0.0
2018-May-19 04:00N 58°56' E 011°10'0 0.0
2018-May-19 03:30N 58°56' E 011°10'0 0.0
2018-May-19 03:00N 58°56' E 011°10'0 0.0
2018-May-19 02:30N 58°56' E 011°10'0 0.0
2018-May-19 02:00N 58°56' E 011°10'0 0.0
2018-May-19 01:30N 58°56' E 011°10'0 0.0
2018-May-19 01:00N 58°56' E 011°10'0 0.0
2018-May-19 00:30N 58°56' E 011°10'0 0.0
2018-May-19 00:00N 58°56' E 011°10'0 0.0
2018-May-18 23:30N 58°56' E 011°10'0 0.0
2018-May-18 23:00N 58°56' E 011°10'0 0.0
2018-May-18 22:30N 58°56' E 011°10'0 0.0
2018-May-18 22:00N 58°56' E 011°10'0 0.0
2018-May-18 21:30N 58°56' E 011°10'0 0.0
2018-May-18 21:00N 58°56' E 011°10'0 0.0
2018-May-18 20:30N 58°56' E 011°10'0 0.0
2018-May-18 20:00N 58°56' E 011°10'0 0.0
2018-May-18 19:30N 58°56' E 011°10'0 0.0
2018-May-18 19:00N 58°56' E 011°10'0 0.0
2018-May-18 18:30N 58°56' E 011°10'0 0.0
2018-May-18 18:00N 58°56' E 011°10'0 0.0
2018-May-18 17:30N 58°56' E 011°10'0 0.0
2018-May-18 17:00N 58°56' E 011°10'0 0.0
2018-May-18 16:30N 58°56' E 011°10'0 0.0
2018-May-18 16:00N 58°56' E 011°10'0 0.0
2018-May-18 15:30N 58°56' E 011°10'0 0.0
2018-May-18 15:00N 58°56' E 011°10'0 0.0
2018-May-18 14:30N 58°56' E 011°10'0 0.0
2018-May-18 14:00N 58°56' E 011°10'0 0.0
2018-May-18 13:30N 58°56' E 011°10'0 0.0
2018-May-18 13:00N 58°56' E 011°10'0 0.0
2018-May-18 12:30N 58°56' E 011°10'0 0.0
2018-May-18 12:00N 58°56' E 011°10'0 0.0
2018-May-18 11:30N 58°56' E 011°10'0 0.0
2018-May-18 11:00N 58°56' E 011°10'0 0.0
2018-May-18 10:30N 58°56' E 011°10'0 0.0
2018-May-18 10:00N 58°56' E 011°10'0 0.0
2018-May-18 09:30N 58°56' E 011°10'0 0.0
2018-May-18 09:00N 58°56' E 011°10'0 0.0
2018-May-18 08:30N 58°56' E 011°10'0 0.0
2018-May-18 08:00N 58°56' E 011°10'0 0.0
2018-May-18 07:30N 58°56' E 011°10'0 0.0
2018-May-18 07:00N 58°56' E 011°10'0 0.0
2018-May-18 06:30N 58°56' E 011°10'0 0.0
2018-May-18 06:00N 58°56' E 011°10'0 0.0
2018-May-18 05:30N 58°56' E 011°10'0 0.0
2018-May-18 05:00N 58°56' E 011°10'0 0.0
2018-May-18 04:30N 58°56' E 011°10'0 0.0
2018-May-18 04:00N 58°56' E 011°10'0 0.0
2018-May-18 03:30N 58°56' E 011°10'0 0.0
2018-May-18 03:00N 58°56' E 011°10'0 0.0
2018-May-18 02:30N 58°56' E 011°10'0 0.0
2018-May-18 02:00N 58°56' E 011°10'0 0.0
2018-May-18 01:30N 58°56' E 011°10'0 0.0
2018-May-18 01:00N 58°56' E 011°10'0 0.0
2018-May-18 00:30N 58°56' E 011°10'0 0.0
2018-May-18 00:00N 58°56' E 011°10'0 0.0
2018-May-17 23:30N 58°56' E 011°10'0 0.0
2018-May-17 23:00N 58°56' E 011°10'0 0.0
2018-May-17 22:30N 58°56' E 011°10'0 0.0
2018-May-17 22:00N 58°56' E 011°10'0 0.0
2018-May-17 21:30N 58°56' E 011°10'0 0.0
2018-May-17 21:00N 58°56' E 011°10'0 0.0
2018-May-17 20:30N 58°56' E 011°10'0 0.0
2018-May-17 20:00N 58°56' E 011°10'0 0.0
2018-May-17 19:30N 58°56' E 011°10'0 0.0
2018-May-17 19:00N 58°56' E 011°10'0 0.0
2018-May-17 18:30N 58°56' E 011°10'0 0.0
2018-May-17 18:00N 58°56' E 011°10'0 0.0
2018-May-17 17:30N 58°56' E 011°10'0 0.0
2018-May-17 17:00N 58°56' E 011°10'0 0.0
2018-May-17 16:30N 58°56' E 011°10'0 0.0
2018-May-17 16:00N 58°56' E 011°10'0 0.0
2018-May-17 15:30N 58°56' E 011°10'0 0.0
2018-May-17 15:00N 58°56' E 011°10'0 0.0
2018-May-17 14:30N 58°56' E 011°10'0 0.0
2018-May-17 14:00N 58°56' E 011°10'0 0.1
2018-May-17 13:30N 58°56' E 011°10'0 0.9
2018-May-17 13:00N 58°56' E 011°10'0 0.0
2018-May-17 12:30N 58°56' E 011°10'0 0.0
2018-May-17 12:00N 58°56' E 011°10'0 0.0
2018-May-17 11:30N 58°56' E 011°10'0 0.0
2018-May-17 11:00N 58°56' E 011°10'0 0.0
2018-May-17 10:30N 58°56' E 011°10'0 0.0
2018-May-17 10:00N 58°56' E 011°10'0 0.0
2018-May-17 09:30N 58°56' E 011°10'0 0.0
2018-May-17 09:00N 58°56' E 011°10'0 0.0
2018-May-17 08:30N 58°56' E 011°10'0 0.0
2018-May-17 08:00N 58°56' E 011°10'0 0.0
2018-May-17 07:30N 58°56' E 011°10'0 0.0
2018-May-17 07:00N 58°56' E 011°10'0 0.0
2018-May-17 06:30N 58°56' E 011°10'0 0.0
2018-May-17 06:00N 58°56' E 011°10'0 0.0
2018-May-17 05:27N 58°56' E 011°10'0 0.0
2018-May-17 05:00N 58°56' E 011°10'0 0.0
2018-May-17 04:29N 58°56' E 011°10'0 0.0
2018-May-17 04:00N 58°56' E 011°10'0 0.0
2018-May-17 03:30N 58°56' E 011°10'0 0.0
2018-May-17 03:00N 58°56' E 011°10'0 0.0
2018-May-17 02:30N 58°56' E 011°10'0 0.0
2018-May-17 01:58N 58°56' E 011°10'0 0.0
2018-May-17 01:30N 58°56' E 011°10'0 0.0
2018-May-17 01:00N 58°56' E 011°10'0 0.0
2018-May-17 00:29N 58°56' E 011°10'0 0.0
2018-May-17 00:00N 58°56' E 011°10'0 0.0
2018-May-16 23:30N 58°56' E 011°10'0 0.0
2018-May-16 23:00N 58°56' E 011°10'0 0.0
2018-May-16 22:30N 58°56' E 011°10'0 0.0
2018-May-16 22:00N 58°56' E 011°10'0 0.0
2018-May-16 21:30N 58°56' E 011°10'0 0.0
2018-May-16 20:58N 58°56' E 011°10'0 0.0
2018-May-16 20:30N 58°56' E 011°10'0 0.0
2018-May-16 20:00N 58°56' E 011°10'0 0.0
2018-May-16 19:30N 58°56' E 011°10'0 0.0
2018-May-16 19:00N 58°56' E 011°10'0 0.0
2018-May-16 18:30N 58°56' E 011°10'0 0.0
2018-May-16 17:59N 58°56' E 011°10'0 0.0
2018-May-16 17:30N 58°56' E 011°10'0 0.0
2018-May-16 17:00N 58°56' E 011°10'0 0.0
2018-May-16 16:30N 58°56' E 011°10'0 0.0
2018-May-16 16:00N 58°56' E 011°10'0 0.0
2018-May-16 15:30N 58°56' E 011°10'0 0.0
2018-May-16 15:00N 58°56' E 011°10'0 0.0
2018-May-16 14:30N 58°56' E 011°10'0 0.0
2018-May-16 14:00N 58°56' E 011°10'0 0.0
2018-May-16 13:30N 58°56' E 011°10'0 0.0
2018-May-16 13:00N 58°56' E 011°10'0 0.0
2018-May-16 12:30N 58°56' E 011°10'0 0.0
2018-May-16 12:00N 58°56' E 011°10'0 0.0
2018-May-16 11:30N 58°56' E 011°10'0 0.0
2018-May-16 11:00N 58°56' E 011°10'0 0.0
2018-May-16 10:30N 58°56' E 011°10'0 0.0
2018-May-16 10:00N 58°56' E 011°10'0 0.0
2018-May-16 09:30N 58°56' E 011°10'0 0.0
2018-May-16 08:57N 58°56' E 011°10'0 0.0
2018-May-16 08:30N 58°56' E 011°10'0 0.0
2018-May-16 08:00N 58°56' E 011°10'0 0.0
2018-May-16 07:30N 58°56' E 011°10'0 0.0
2018-May-16 07:00N 58°56' E 011°10'0 0.0
2018-May-16 06:30N 58°56' E 011°10'0 0.0
2018-May-16 06:00N 58°56' E 011°10'0 0.0
2018-May-16 05:30N 58°56' E 011°10'0 0.0
2018-May-16 05:00N 58°56' E 011°10'0 0.0
2018-May-16 04:30N 58°56' E 011°10'0 0.0
2018-May-16 04:00N 58°56' E 011°10'0 0.0
2018-May-16 03:30N 58°56' E 011°10'0 0.0
2018-May-16 03:00N 58°56' E 011°10'0 0.0
2018-May-16 02:29N 58°56' E 011°10'0 0.0
2018-May-16 02:00N 58°56' E 011°10'0 0.0
2018-May-16 01:30N 58°56' E 011°10'0 0.0
2018-May-16 01:00N 58°56' E 011°10'0 0.0
2018-May-16 00:30N 58°56' E 011°10'0 0.0
2018-May-16 00:00N 58°56' E 011°10'0 0.0
2018-May-15 23:30N 58°56' E 011°10'0 0.0
2018-May-15 23:00N 58°56' E 011°10'0 0.0
2018-May-15 22:30N 58°56' E 011°10'0 0.0
2018-May-15 22:00N 58°56' E 011°10'0 0.0
2018-May-15 21:30N 58°56' E 011°10'0 0.0
2018-May-15 21:00N 58°56' E 011°10'0 0.0
2018-May-15 20:30N 58°56' E 011°10'0 0.0
2018-May-15 20:00N 58°56' E 011°10'0 0.0
2018-May-15 19:30N 58°56' E 011°10'0 0.0
2018-May-15 19:00N 58°56' E 011°10'0 0.0
2018-May-15 18:30N 58°56' E 011°10'0 0.0
2018-May-15 17:53N 58°56' E 011°10'0 0.0
2018-May-15 17:30N 58°56' E 011°10'0 0.0
2018-May-15 17:00N 58°56' E 011°10'0 0.0
2018-May-15 16:30N 58°56' E 011°10'0 0.0
2018-May-15 16:00N 58°56' E 011°10'0 0.0
2018-May-15 15:30N 58°56' E 011°10'0 0.0
2018-May-15 15:00N 58°56' E 011°10'0 0.0
2018-May-15 14:29N 58°56' E 011°10'0 0.0
2018-May-15 14:00N 58°56' E 011°10'0 0.0
2018-May-15 13:30N 58°56' E 011°10'0 0.0
2018-May-15 13:00N 58°56' E 011°10'0 0.0
2018-May-15 12:30N 58°56' E 011°10'0 0.0
2018-May-15 12:00N 58°56' E 011°10'0 0.0
2018-May-15 11:30N 58°56' E 011°10'0 0.0
2018-May-15 11:00N 58°56' E 011°10'0 0.0
2018-May-15 10:30N 58°56' E 011°10'0 0.0
2018-May-15 10:00N 58°56' E 011°10'0 0.0
2018-May-15 09:30N 58°56' E 011°10'0 0.0
2018-May-15 09:00N 58°56' E 011°10'0 0.0
2018-May-15 08:30N 58°56' E 011°10'0 0.0
2018-May-15 08:00N 58°56' E 011°10'0 0.0
2018-May-15 07:30N 58°56' E 011°10'0 0.0
2018-May-15 07:00N 58°56' E 011°10'0 0.0
2018-May-15 06:30N 58°56' E 011°10'0 0.1
2018-May-15 06:00N 58°56' E 011°10'0 1.0
2018-May-15 05:30N 58°56' E 011°10'0 0.0
2018-May-15 05:00N 58°56' E 011°10'0 0.0
2018-May-15 04:30N 58°56' E 011°10'0 0.0
2018-May-15 04:00N 58°56' E 011°10'0 0.0
2018-May-15 03:30N 58°56' E 011°10'0 0.0
2018-May-15 03:00N 58°56' E 011°10'0 0.0
2018-May-15 02:30N 58°56' E 011°10'0 0.0
2018-May-15 02:00N 58°56' E 011°10'0 0.0
2018-May-15 01:30N 58°56' E 011°10'0 0.0
2018-May-15 01:00N 58°56' E 011°10'0 0.0
2018-May-15 00:30N 58°56' E 011°10'0 0.0
2018-May-15 00:00N 58°56' E 011°10'0 0.0
2018-May-14 23:30N 58°56' E 011°10'0 0.0
2018-May-14 23:00N 58°56' E 011°10'0 0.0
2018-May-14 22:30N 58°56' E 011°10'0 0.0
2018-May-14 22:00N 58°56' E 011°10'0 0.0
2018-May-14 21:30N 58°56' E 011°10'0 0.0
2018-May-14 21:00N 58°56' E 011°10'0 0.0
2018-May-14 20:30N 58°56' E 011°10'0 0.0
2018-May-14 20:00N 58°56' E 011°10'0 0.0
2018-May-14 19:30N 58°56' E 011°10'0 0.0
2018-May-14 19:00N 58°56' E 011°10'0 0.0
2018-May-14 18:30N 58°56' E 011°10'0 0.0
2018-May-14 18:00N 58°56' E 011°10'0 0.0
2018-May-14 17:30N 58°56' E 011°10'0 0.0
2018-May-14 17:00N 58°56' E 011°10'0 0.0
2018-May-14 16:30N 58°56' E 011°10'0 0.0
2018-May-14 16:00N 58°56' E 011°10'0 0.0
2018-May-14 15:30N 58°56' E 011°10'0 0.0
2018-May-14 15:00N 58°56' E 011°10'0 0.0
2018-May-14 14:30N 58°56' E 011°10'0 0.0
2018-May-14 14:00N 58°56' E 011°10'0 0.0
2018-May-14 13:30N 58°56' E 011°10'0 0.0
2018-May-14 13:00N 58°56' E 011°10'0 0.0
2018-May-14 12:30N 58°56' E 011°10'0 0.0
2018-May-14 12:00N 58°56' E 011°10'0 0.0
2018-May-14 11:30N 58°56' E 011°10'0 0.0
2018-May-14 11:00N 58°56' E 011°10'0 0.0
2018-May-14 10:30N 58°56' E 011°10'0 0.0
2018-May-14 10:00N 58°56' E 011°10'0 0.0
2018-May-14 09:30N 58°56' E 011°10'0 0.0
2018-May-14 09:00N 58°56' E 011°10'0 0.0
2018-May-14 08:30N 58°56' E 011°10'0 0.0
2018-May-14 08:00N 58°56' E 011°10'0 0.0
2018-May-14 07:30N 58°56' E 011°10'0 0.0
2018-May-14 07:00N 58°56' E 011°10'0 0.0
2018-May-14 06:30N 58°56' E 011°10'0 0.0
2018-May-14 05:58N 58°56' E 011°10'0 0.1
2018-May-14 05:30N 58°56' E 011°10'0 0.0
2018-May-14 05:00N 58°56' E 011°10'0 0.0
2018-May-14 04:30N 58°56' E 011°10'0 0.0
2018-May-14 04:00N 58°56' E 011°10'0 0.0
2018-May-14 03:30N 58°56' E 011°10'0 0.0
2018-May-14 02:59N 58°56' E 011°10'0 0.0
2018-May-14 02:30N 58°56' E 011°10'0 0.0
2018-May-14 02:00N 58°56' E 011°10'0 0.0
2018-May-14 01:30N 58°56' E 011°10'0 0.0
2018-May-14 01:00N 58°56' E 011°10'0 0.0
2018-May-14 00:30N 58°56' E 011°10'0 0.0
2018-May-14 00:00N 58°56' E 011°10'0 0.0
2018-May-13 23:30N 58°56' E 011°10'0 0.0
2018-May-13 23:00N 58°56' E 011°10'0 0.0
2018-May-13 22:30N 58°56' E 011°10'0 0.0
2018-May-13 22:00N 58°56' E 011°10'0 0.0
2018-May-13 21:29N 58°56' E 011°10'0 0.0
2018-May-13 20:59N 58°56' E 011°10'0 0.0
2018-May-13 20:30N 58°56' E 011°10'0 0.0
2018-May-13 20:00N 58°56' E 011°10'0 0.0
2018-May-13 19:30N 58°56' E 011°10'0 0.0
2018-May-13 19:00N 58°56' E 011°10'0 0.0
2018-May-13 18:30N 58°56' E 011°10'0 0.0
2018-May-13 18:00N 58°56' E 011°10'0 0.0
2018-May-13 17:30N 58°56' E 011°10'0 0.0
2018-May-13 17:00N 58°56' E 011°10'0 0.0
2018-May-13 16:30N 58°56' E 011°10'0 0.0
2018-May-13 15:59N 58°56' E 011°10'0 0.0
2018-May-13 15:30N 58°56' E 011°10'0 0.0
2018-May-13 15:00N 58°56' E 011°10'0 0.0
2018-May-13 14:30N 58°56' E 011°10'0 0.0
2018-May-13 14:00N 58°56' E 011°10'0 0.0
2018-May-13 13:30N 58°56' E 011°10'0 0.0
2018-May-13 13:00N 58°56' E 011°10'0 0.0
2018-May-13 12:30N 58°56' E 011°10'0 0.0
2018-May-13 11:59N 58°56' E 011°10'0 0.0
2018-May-13 11:30N 58°56' E 011°10'0 0.0
2018-May-13 11:00N 58°56' E 011°10'0 0.0
2018-May-13 10:30N 58°56' E 011°10'0 0.0
2018-May-13 10:00N 58°56' E 011°10'0 0.0
2018-May-13 09:30N 58°56' E 011°10'0 0.0
2018-May-13 09:00N 58°56' E 011°10'0 0.0
2018-May-13 08:30N 58°56' E 011°10'0 0.0
2018-May-13 08:00N 58°56' E 011°10'0 0.0
2018-May-13 07:30N 58°56' E 011°10'0 0.0
2018-May-13 07:00N 58°56' E 011°10'0 0.0
2018-May-13 06:30N 58°56' E 011°10'0 0.0
2018-May-13 06:00N 58°56' E 011°10'0 0.0
2018-May-13 05:30N 58°56' E 011°10'0 0.0
2018-May-13 05:00N 58°56' E 011°10'0 0.0
2018-May-13 04:30N 58°56' E 011°10'0 0.0
2018-May-13 04:00N 58°56' E 011°10'0 0.0
2018-May-13 03:30N 58°56' E 011°10'0 0.0
2018-May-13 03:00N 58°56' E 011°10'0 0.0
2018-May-13 02:30N 58°56' E 011°10'0 0.0
2018-May-13 02:00N 58°56' E 011°10'0 0.0
2018-May-13 01:30N 58°56' E 011°10'0 0.0
2018-May-13 01:00N 58°56' E 011°10'0 0.0
2018-May-13 00:30N 58°56' E 011°10'0 0.0
2018-May-13 00:00N 58°56' E 011°10'0 0.0
2018-May-12 23:30N 58°56' E 011°10'0 0.0
2018-May-12 23:00N 58°56' E 011°10'0 0.0
2018-May-12 22:30N 58°56' E 011°10'0 0.0
2018-May-12 22:00N 58°56' E 011°10'0 0.0
2018-May-12 21:30N 58°56' E 011°10'0 0.0
2018-May-12 21:00N 58°56' E 011°10'0 0.0
2018-May-12 20:30N 58°56' E 011°10'0 0.0
2018-May-12 20:00N 58°56' E 011°10'0 0.0
2018-May-12 19:30N 58°56' E 011°10'0 0.0
2018-May-12 19:00N 58°56' E 011°10'0 0.0
2018-May-12 18:28N 58°56' E 011°10'0 0.0
2018-May-12 18:00N 58°56' E 011°10'0 0.0
2018-May-12 17:30N 58°56' E 011°10'0 0.0
2018-May-12 17:00N 58°56' E 011°10'0 0.0
2018-May-12 16:30N 58°56' E 011°10'0 0.0
2018-May-12 16:00N 58°56' E 011°10'0 0.0
2018-May-12 15:30N 58°56' E 011°10'0 0.0
2018-May-12 15:00N 58°56' E 011°10'0 0.0
2018-May-12 14:30N 58°56' E 011°10'0 0.0
2018-May-12 14:00N 58°56' E 011°10'0 0.0
2018-May-12 13:30N 58°56' E 011°10'0 0.0
2018-May-12 13:00N 58°56' E 011°10'0 0.0
2018-May-12 12:30N 58°56' E 011°10'  
Track history (hours):
 
Tides and Currents Weather Stations Pressure Air Temp Water Temp Dewpoint Dewpoint Depression Visibility Wind Speed Wind Dir Waves Ship Positions

Sd416 Nippon

Last reported at 2018-May-22 12:00 UTC. Time now 2018-May-22 12:01 UTC.
Position N 58°51' E 011°05'.

Length 17 m; draft 2.5 m.

Type: Fishing. MMSI: 266163000.

Date/timePositionNaut miles runAvg speedWind from/ knotsBaromVisibWave heightAir tempDewpointWater temp
2018-May-22 12:00N 58°51' E 011°05'4 7.7
2018-May-22 11:30N 58°54' E 011°05'3 6.0
2018-May-22 11:00N 58°56' E 011°10'0 0.0
2018-May-22 10:30N 58°56' E 011°10'0 0.0
2018-May-22 10:00N 58°56' E 011°10'1 2.0
2018-May-22 09:30N 58°56' E 011°08'4 7.0
2018-May-22 09:00N 58°55' E 011°02'4 7.5
2018-May-22 08:30N 58°54' E 010°55'4 8.0
2018-May-22 08:00N 58°51' E 010°49'3 5.7
2018-May-22 07:30N 58°49' E 010°45'4 7.1
2018-May-22 07:00N 58°47' E 010°40'3 6.6
2018-May-22 06:30N 58°44' E 010°36'3 6.4
2018-May-22 06:00N 58°42' E 010°32'3 5.7
2018-May-22 05:30N 58°40' E 010°28'0 0.4
2018-May-22 05:00N 58°40' E 010°29'1 1.5
2018-May-22 04:30N 58°39' E 010°29'1 1.6
2018-May-22 04:00N 58°39' E 010°30'1 1.6
2018-May-22 03:30N 58°38' E 010°31'1 1.6
2018-May-22 03:00N 58°37' E 010°32'1 1.6
2018-May-22 02:30N 58°37' E 010°33'1 1.6
2018-May-22 02:00N 58°36' E 010°34'1 1.5
2018-May-22 01:30N 58°35' E 010°35'1 1.6
2018-May-22 01:00N 58°35' E 010°35'1 1.6
2018-May-22 00:30N 58°34' E 010°36'1 1.6
2018-May-22 00:00N 58°34' E 010°37'1 1.6
2018-May-21 23:30N 58°33' E 010°38'1 1.6
2018-May-21 23:00N 58°32' E 010°39'1 1.6
2018-May-21 22:30N 58°32' E 010°40'1 1.6
2018-May-21 22:00N 58°31' E 010°41'1 1.6
2018-May-21 21:30N 58°30' E 010°41'1 1.5
2018-May-21 21:00N 58°29' E 010°41'1 1.7
2018-May-21 20:27N 58°28' E 010°42'1 1.7
2018-May-21 20:00N 58°28' E 010°42'1 1.7
2018-May-21 19:30N 58°27' E 010°42'1 1.7
2018-May-21 19:00N 58°26' E 010°43'0 0.9
2018-May-21 18:30N 58°26' E 010°42'4 7.6
2018-May-21 18:00N 58°29' E 010°39'1 2.2
2018-May-21 17:30N 58°30' E 010°39'0 0.9
2018-May-21 17:00N 58°31' E 010°39'1 1.3
2018-May-21 16:30N 58°31' E 010°39'1 1.2
2018-May-21 16:00N 58°32' E 010°39'1 1.3
2018-May-21 15:30N 58°32' E 010°38'1 1.3
2018-May-21 14:57N 58°33' E 010°37'1 1.3
2018-May-21 14:30N 58°34' E 010°37'1 1.3
2018-May-21 13:59N 58°34' E 010°36'1 1.3
2018-May-21 13:29N 58°34' E 010°35'1 1.3
2018-May-21 13:00N 58°35' E 010°34'1 1.3
2018-May-21 12:30N 58°35' E 010°33'1 1.3
2018-May-21 12:00N 58°36' E 010°33'1 1.3
2018-May-21 11:30N 58°36' E 010°32'1 1.3
2018-May-21 11:00N 58°37' E 010°31'1 1.3
2018-May-21 10:30N 58°37' E 010°30'1 1.3
2018-May-21 10:00N 58°37' E 010°29'1 1.3
2018-May-21 09:30N 58°38' E 010°28'1 1.4
2018-May-21 09:00N 58°39' E 010°28'1 1.3
2018-May-21 08:30N 58°39' E 010°28'1 1.3
2018-May-21 08:00N 58°40' E 010°27'1 1.3
2018-May-21 07:30N 58°41' E 010°27'1 1.7
2018-May-21 07:00N 58°41' E 010°26'0 0.3
2018-May-21 06:30N 58°41' E 010°26'1 1.7
2018-May-21 06:00N 58°41' E 010°27'1 1.7
2018-May-21 05:30N 58°40' E 010°28'1 1.7
2018-May-21 05:00N 58°39' E 010°28'1 1.7
2018-May-21 04:30N 58°38' E 010°29'1 1.7
2018-May-21 04:00N 58°38' E 010°30'1 1.7
2018-May-21 03:30N 58°37' E 010°31'1 1.7
2018-May-21 03:00N 58°36' E 010°33'1 1.7
2018-May-21 02:30N 58°36' E 010°34'1 1.7
2018-May-21 02:00N 58°35' E 010°34'1 1.7
2018-May-21 01:30N 58°34' E 010°35'1 1.7
2018-May-21 01:00N 58°34' E 010°37'1 1.7
2018-May-21 00:30N 58°33' E 010°38'1 1.7
2018-May-21 00:00N 58°32' E 010°38'1 1.7
2018-May-20 23:30N 58°32' E 010°38'1 1.7
2018-May-20 23:00N 58°31' E 010°39'1 1.8
2018-May-20 22:30N 58°30' E 010°40'1 1.7
2018-May-20 22:00N 58°29' E 010°40'1 1.7
2018-May-20 21:30N 58°28' E 010°41'1 1.7
2018-May-20 20:55N 58°28' E 010°42'1 1.9
2018-May-20 20:25N 58°27' E 010°42'1 2.7
2018-May-20 19:59N 58°28' E 010°42'4 7.3
2018-May-20 19:30N 58°31' E 010°45'4 7.9
2018-May-20 19:00N 58°34' E 010°49'4 7.9
2018-May-20 18:30N 58°37' E 010°53'4 7.9
2018-May-20 18:00N 58°41' E 010°57'4 7.7
2018-May-20 17:30N 58°44' E 011°00'4 7.3
2018-May-20 17:00N 58°48' E 011°04'3 6.9
2018-May-20 16:30N 58°51' E 011°05'4 7.0
2018-May-20 16:00N 58°54' E 011°05'3 5.8
2018-May-20 15:29N 58°56' E 011°10'0 0.0
2018-May-20 15:00N 58°56' E 011°10'0 0.0
2018-May-20 14:30N 58°56' E 011°10'0 0.0
2018-May-20 14:00N 58°56' E 011°10'0 0.0
2018-May-20 13:30N 58°56' E 011°10'0 0.0
2018-May-20 13:00N 58°56' E 011°10'0 0.0
2018-May-20 12:30N 58°56' E 011°10'0 0.0
2018-May-20 11:59N 58°56' E 011°10'0 0.0
2018-May-20 11:30N 58°56' E 011°10'0 0.0
2018-May-20 11:00N 58°56' E 011°10'0 0.0
2018-May-20 10:30N 58°56' E 011°10'0 0.0
2018-May-20 10:00N 58°56' E 011°10'0 0.0
2018-May-20 09:30N 58°56' E 011°10'0 0.0
2018-May-20 09:00N 58°56' E 011°10'0 0.0
2018-May-20 08:30N 58°56' E 011°10'0 0.0
2018-May-20 08:00N 58°56' E 011°10'0 0.0
2018-May-20 07:30N 58°56' E 011°10'0 0.0
2018-May-20 07:00N 58°56' E 011°10'0 0.0
2018-May-20 06:30N 58°56' E 011°10'0 0.0
2018-May-20 06:00N 58°56' E 011°10'0 0.0
2018-May-20 05:30N 58°56' E 011°10'0 0.0
2018-May-20 05:00N 58°56' E 011°10'0 0.0
2018-May-20 04:30N 58°56' E 011°10'0 0.0
2018-May-20 04:00N 58°56' E 011°10'0 0.0
2018-May-20 03:30N 58°56' E 011°10'0 0.0
2018-May-20 03:00N 58°56' E 011°10'0 0.0
2018-May-20 02:30N 58°56' E 011°10'0 0.0
2018-May-20 02:00N 58°56' E 011°10'0 0.0
2018-May-20 01:30N 58°56' E 011°10'0 0.0
2018-May-20 01:00N 58°56' E 011°10'0 0.0
2018-May-20 00:30N 58°56' E 011°10'0 0.0
2018-May-20 00:00N 58°56' E 011°10'0 0.0
2018-May-19 23:30N 58°56' E 011°10'0 0.0
2018-May-19 23:00N 58°56' E 011°10'0 0.0
2018-May-19 22:30N 58°56' E 011°10'0 0.0
2018-May-19 22:00N 58°56' E 011°10'0 0.0
2018-May-19 21:29N 58°56' E 011°10'0 0.0
2018-May-19 21:00N 58°56' E 011°10'0 0.0
2018-May-19 20:30N 58°56' E 011°10'0 0.0
2018-May-19 20:00N 58°56' E 011°10'0 0.0
2018-May-19 19:30N 58°56' E 011°10'0 0.0
2018-May-19 19:00N 58°56' E 011°10'0 0.0
2018-May-19 18:30N 58°56' E 011°10'0 0.0
2018-May-19 18:00N 58°56' E 011°10'0 0.0
2018-May-19 17:30N 58°56' E 011°10'0 0.0
2018-May-19 17:00N 58°56' E 011°10'0 0.0
2018-May-19 16:30N 58°56' E 011°10'0 0.0
2018-May-19 16:00N 58°56' E 011°10'0 0.0
2018-May-19 15:30N 58°56' E 011°10'0 0.0
2018-May-19 15:00N 58°56' E 011°10'0 0.0
2018-May-19 14:30N 58°56' E 011°10'0 0.0
2018-May-19 14:00N 58°56' E 011°10'0 0.0
2018-May-19 13:30N 58°56' E 011°10'0 0.0
2018-May-19 13:00N 58°56' E 011°10'0 0.0
2018-May-19 12:30N 58°56' E 011°10'0 0.0
2018-May-19 12:00N 58°56' E 011°10'0 0.0
2018-May-19 11:30N 58°56' E 011°10'0 0.0
2018-May-19 11:00N 58°56' E 011°10'0 0.0
2018-May-19 10:30N 58°56' E 011°10'0 0.0
2018-May-19 10:00N 58°56' E 011°10'0 0.0
2018-May-19 09:30N 58°56' E 011°10'0 0.0
2018-May-19 09:00N 58°56' E 011°10'0 0.0
2018-May-19 08:30N 58°56' E 011°10'0 0.0
2018-May-19 08:00N 58°56' E 011°10'0 0.0
2018-May-19 07:30N 58°56' E 011°10'0 0.0
2018-May-19 07:00N 58°56' E 011°10'0 0.0
2018-May-19 06:30N 58°56' E 011°10'0 0.0
2018-May-19 06:00N 58°56' E 011°10'0 0.0
2018-May-19 05:30N 58°56' E 011°10'0 0.0
2018-May-19 05:00N 58°56' E 011°10'0 0.0
2018-May-19 04:30N 58°56' E 011°10'0 0.0
2018-May-19 04:00N 58°56' E 011°10'0 0.0
2018-May-19 03:30N 58°56' E 011°10'0 0.0
2018-May-19 03:00N 58°56' E 011°10'0 0.0
2018-May-19 02:30N 58°56' E 011°10'0 0.0
2018-May-19 02:00N 58°56' E 011°10'0 0.0
2018-May-19 01:30N 58°56' E 011°10'0 0.0
2018-May-19 01:00N 58°56' E 011°10'0 0.0
2018-May-19 00:30N 58°56' E 011°10'0 0.0
2018-May-19 00:00N 58°56' E 011°10'0 0.0
2018-May-18 23:30N 58°56' E 011°10'0 0.0
2018-May-18 23:00N 58°56' E 011°10'0 0.0
2018-May-18 22:30N 58°56' E 011°10'0 0.0
2018-May-18 22:00N 58°56' E 011°10'0 0.0
2018-May-18 21:30N 58°56' E 011°10'0 0.0
2018-May-18 21:00N 58°56' E 011°10'0 0.0
2018-May-18 20:30N 58°56' E 011°10'0 0.0
2018-May-18 20:00N 58°56' E 011°10'0 0.0
2018-May-18 19:30N 58°56' E 011°10'0 0.0
2018-May-18 19:00N 58°56' E 011°10'0 0.0
2018-May-18 18:30N 58°56' E 011°10'0 0.0
2018-May-18 18:00N 58°56' E 011°10'0 0.0
2018-May-18 17:30N 58°56' E 011°10'0 0.0
2018-May-18 17:00N 58°56' E 011°10'0 0.0
2018-May-18 16:30N 58°56' E 011°10'0 0.0
2018-May-18 16:00N 58°56' E 011°10'0 0.0
2018-May-18 15:30N 58°56' E 011°10'0 0.0
2018-May-18 15:00N 58°56' E 011°10'0 0.0
2018-May-18 14:30N 58°56' E 011°10'0 0.0
2018-May-18 14:00N 58°56' E 011°10'0 0.0
2018-May-18 13:30N 58°56' E 011°10'0 0.0
2018-May-18 13:00N 58°56' E 011°10'0 0.0
2018-May-18 12:30N 58°56' E 011°10'0 0.0
2018-May-18 12:00N 58°56' E 011°10'0 0.0
2018-May-18 11:30N 58°56' E 011°10'0 0.0
2018-May-18 11:00N 58°56' E 011°10'0 0.0
2018-May-18 10:30N 58°56' E 011°10'0 0.0
2018-May-18 10:00N 58°56' E 011°10'0 0.0
2018-May-18 09:30N 58°56' E 011°10'0 0.0
2018-May-18 09:00N 58°56' E 011°10'0 0.0
2018-May-18 08:30N 58°56' E 011°10'0 0.0
2018-May-18 08:00N 58°56' E 011°10'0 0.0
2018-May-18 07:30N 58°56' E 011°10'0 0.0
2018-May-18 07:00N 58°56' E 011°10'0 0.0
2018-May-18 06:30N 58°56' E 011°10'0 0.0
2018-May-18 06:00N 58°56' E 011°10'0 0.0
2018-May-18 05:30N 58°56' E 011°10'0 0.0
2018-May-18 05:00N 58°56' E 011°10'0 0.0
2018-May-18 04:30N 58°56' E 011°10'0 0.0
2018-May-18 04:00N 58°56' E 011°10'0 0.0
2018-May-18 03:30N 58°56' E 011°10'0 0.0
2018-May-18 03:00N 58°56' E 011°10'0 0.0
2018-May-18 02:30N 58°56' E 011°10'0 0.0
2018-May-18 02:00N 58°56' E 011°10'0 0.0
2018-May-18 01:30N 58°56' E 011°10'0 0.0
2018-May-18 01:00N 58°56' E 011°10'0 0.0
2018-May-18 00:30N 58°56' E 011°10'0 0.0
2018-May-18 00:00N 58°56' E 011°10'0 0.0
2018-May-17 23:30N 58°56' E 011°10'0 0.0
2018-May-17 23:00N 58°56' E 011°10'0 0.0
2018-May-17 22:30N 58°56' E 011°10'0 0.0
2018-May-17 22:00N 58°56' E 011°10'0 0.0
2018-May-17 21:30N 58°56' E 011°10'0 0.0
2018-May-17 21:00N 58°56' E 011°10'0 0.0
2018-May-17 20:30N 58°56' E 011°10'0 0.0
2018-May-17 20:00N 58°56' E 011°10'0 0.0
2018-May-17 19:30N 58°56' E 011°10'0 0.0
2018-May-17 19:00N 58°56' E 011°10'0 0.0
2018-May-17 18:30N 58°56' E 011°10'0 0.0
2018-May-17 18:00N 58°56' E 011°10'0 0.0
2018-May-17 17:30N 58°56' E 011°10'0 0.0
2018-May-17 17:00N 58°56' E 011°10'0 0.0
2018-May-17 16:30N 58°56' E 011°10'0 0.0
2018-May-17 16:00N 58°56' E 011°10'0 0.0
2018-May-17 15:30N 58°56' E 011°10'0 0.0
2018-May-17 15:00N 58°56' E 011°10'0 0.0
2018-May-17 14:30N 58°56' E 011°10'0 0.0
2018-May-17 14:00N 58°56' E 011°10'0 0.1
2018-May-17 13:30N 58°56' E 011°10'0 0.9
2018-May-17 13:00N 58°56' E 011°10'0 0.0
2018-May-17 12:30N 58°56' E 011°10'0 0.0
2018-May-17 12:00N 58°56' E 011°10'0 0.0
2018-May-17 11:30N 58°56' E 011°10'0 0.0
2018-May-17 11:00N 58°56' E 011°10'0 0.0
2018-May-17 10:30N 58°56' E 011°10'0 0.0
2018-May-17 10:00N 58°56' E 011°10'0 0.0
2018-May-17 09:30N 58°56' E 011°10'0 0.0
2018-May-17 09:00N 58°56' E 011°10'0 0.0
2018-May-17 08:30N 58°56' E 011°10'0 0.0
2018-May-17 08:00N 58°56' E 011°10'0 0.0
2018-May-17 07:30N 58°56' E 011°10'0 0.0
2018-May-17 07:00N 58°56' E 011°10'0 0.0
2018-May-17 06:30N 58°56' E 011°10'0 0.0
2018-May-17 06:00N 58°56' E 011°10'0 0.0
2018-May-17 05:27N 58°56' E 011°10'0 0.0
2018-May-17 05:00N 58°56' E 011°10'0 0.0
2018-May-17 04:29N 58°56' E 011°10'0 0.0
2018-May-17 04:00N 58°56' E 011°10'0 0.0
2018-May-17 03:30N 58°56' E 011°10'0 0.0
2018-May-17 03:00N 58°56' E 011°10'0 0.0
2018-May-17 02:30N 58°56' E 011°10'0 0.0
2018-May-17 01:58N 58°56' E 011°10'0 0.0
2018-May-17 01:30N 58°56' E 011°10'0 0.0
2018-May-17 01:00N 58°56' E 011°10'0 0.0
2018-May-17 00:29N 58°56' E 011°10'0 0.0
2018-May-17 00:00N 58°56' E 011°10'0 0.0
2018-May-16 23:30N 58°56' E 011°10'0 0.0
2018-May-16 23:00N 58°56' E 011°10'0 0.0
2018-May-16 22:30N 58°56' E 011°10'0 0.0
2018-May-16 22:00N 58°56' E 011°10'0 0.0
2018-May-16 21:30N 58°56' E 011°10'0 0.0
2018-May-16 20:58N 58°56' E 011°10'0 0.0
2018-May-16 20:30N 58°56' E 011°10'0 0.0
2018-May-16 20:00N 58°56' E 011°10'0 0.0
2018-May-16 19:30N 58°56' E 011°10'0 0.0
2018-May-16 19:00N 58°56' E 011°10'0 0.0
2018-May-16 18:30N 58°56' E 011°10'0 0.0
2018-May-16 17:59N 58°56' E 011°10'0 0.0
2018-May-16 17:30N 58°56' E 011°10'0 0.0
2018-May-16 17:00N 58°56' E 011°10'0 0.0
2018-May-16 16:30N 58°56' E 011°10'0 0.0
2018-May-16 16:00N 58°56' E 011°10'0 0.0
2018-May-16 15:30N 58°56' E 011°10'0 0.0
2018-May-16 15:00N 58°56' E 011°10'0 0.0
2018-May-16 14:30N 58°56' E 011°10'0 0.0
2018-May-16 14:00N 58°56' E 011°10'0 0.0
2018-May-16 13:30N 58°56' E 011°10'0 0.0
2018-May-16 13:00N 58°56' E 011°10'0 0.0
2018-May-16 12:30N 58°56' E 011°10'0 0.0
2018-May-16 12:00N 58°56' E 011°10'0 0.0
2018-May-16 11:30N 58°56' E 011°10'0 0.0
2018-May-16 11:00N 58°56' E 011°10'0 0.0
2018-May-16 10:30N 58°56' E 011°10'0 0.0
2018-May-16 10:00N 58°56' E 011°10'0 0.0
2018-May-16 09:30N 58°56' E 011°10'0 0.0
2018-May-16 08:57N 58°56' E 011°10'0 0.0
2018-May-16 08:30N 58°56' E 011°10'0 0.0
2018-May-16 08:00N 58°56' E 011°10'0 0.0
2018-May-16 07:30N 58°56' E 011°10'0 0.0
2018-May-16 07:00N 58°56' E 011°10'0 0.0
2018-May-16 06:30N 58°56' E 011°10'0 0.0
2018-May-16 06:00N 58°56' E 011°10'0 0.0
2018-May-16 05:30N 58°56' E 011°10'0 0.0
2018-May-16 05:00N 58°56' E 011°10'0 0.0
2018-May-16 04:30N 58°56' E 011°10'0 0.0
2018-May-16 04:00N 58°56' E 011°10'0 0.0
2018-May-16 03:30N 58°56' E 011°10'0 0.0
2018-May-16 03:00N 58°56' E 011°10'0 0.0
2018-May-16 02:29N 58°56' E 011°10'0 0.0
2018-May-16 02:00N 58°56' E 011°10'0 0.0
2018-May-16 01:30N 58°56' E 011°10'0 0.0
2018-May-16 01:00N 58°56' E 011°10'0 0.0
2018-May-16 00:30N 58°56' E 011°10'0 0.0
2018-May-16 00:00N 58°56' E 011°10'0 0.0
2018-May-15 23:30N 58°56' E 011°10'0 0.0
2018-May-15 23:00N 58°56' E 011°10'0 0.0
2018-May-15 22:30N 58°56' E 011°10'0 0.0
2018-May-15 22:00N 58°56' E 011°10'0 0.0
2018-May-15 21:30N 58°56' E 011°10'0 0.0
2018-May-15 21:00N 58°56' E 011°10'0 0.0
2018-May-15 20:30N 58°56' E 011°10'0 0.0
2018-May-15 20:00N 58°56' E 011°10'0 0.0
2018-May-15 19:30N 58°56' E 011°10'0 0.0
2018-May-15 19:00N 58°56' E 011°10'0 0.0
2018-May-15 18:30N 58°56' E 011°10'0 0.0
2018-May-15 17:53N 58°56' E 011°10'0 0.0
2018-May-15 17:30N 58°56' E 011°10'0 0.0
2018-May-15 17:00N 58°56' E 011°10'0 0.0
2018-May-15 16:30N 58°56' E 011°10'0 0.0
2018-May-15 16:00N 58°56' E 011°10'0 0.0
2018-May-15 15:30N 58°56' E 011°10'0 0.0
2018-May-15 15:00N 58°56' E 011°10'0 0.0
2018-May-15 14:29N 58°56' E 011°10'0 0.0
2018-May-15 14:00N 58°56' E 011°10'0 0.0
2018-May-15 13:30N 58°56' E 011°10'0 0.0
2018-May-15 13:00N 58°56' E 011°10'0 0.0
2018-May-15 12:30N 58°56' E 011°10'0 0.0
2018-May-15 12:00N 58°56' E 011°10'0 0.0
2018-May-15 11:30N 58°56' E 011°10'0 0.0
2018-May-15 11:00N 58°56' E 011°10'0 0.0
2018-May-15 10:30N 58°56' E 011°10'0 0.0
2018-May-15 10:00N 58°56' E 011°10'0 0.0
2018-May-15 09:30N 58°56' E 011°10'0 0.0
2018-May-15 09:00N 58°56' E 011°10'0 0.0
2018-May-15 08:30N 58°56' E 011°10'0 0.0
2018-May-15 08:00N 58°56' E 011°10'0 0.0
2018-May-15 07:30N 58°56' E 011°10'0 0.0
2018-May-15 07:00N 58°56' E 011°10'0 0.0
2018-May-15 06:30N 58°56' E 011°10'0 0.1
2018-May-15 06:00N 58°56' E 011°10'0 1.0
2018-May-15 05:30N 58°56' E 011°10'0 0.0
2018-May-15 05:00N 58°56' E 011°10'0 0.0
2018-May-15 04:30N 58°56' E 011°10'0 0.0
2018-May-15 04:00N 58°56' E 011°10'0 0.0
2018-May-15 03:30N 58°56' E 011°10'0 0.0
2018-May-15 03:00N 58°56' E 011°10'0 0.0
2018-May-15 02:30N 58°56' E 011°10'0 0.0
2018-May-15 02:00N 58°56' E 011°10'0 0.0
2018-May-15 01:30N 58°56' E 011°10'0 0.0
2018-May-15 01:00N 58°56' E 011°10'0 0.0
2018-May-15 00:30N 58°56' E 011°10'0 0.0
2018-May-15 00:00N 58°56' E 011°10'0 0.0
2018-May-14 23:30N 58°56' E 011°10'0 0.0
2018-May-14 23:00N 58°56' E 011°10'0 0.0
2018-May-14 22:30N 58°56' E 011°10'0 0.0
2018-May-14 22:00N 58°56' E 011°10'0 0.0
2018-May-14 21:30N 58°56' E 011°10'0 0.0
2018-May-14 21:00N 58°56' E 011°10'0 0.0
2018-May-14 20:30N 58°56' E 011°10'0 0.0
2018-May-14 20:00N 58°56' E 011°10'0 0.0
2018-May-14 19:30N 58°56' E 011°10'0 0.0
2018-May-14 19:00N 58°56' E 011°10'0 0.0
2018-May-14 18:30N 58°56' E 011°10'0 0.0
2018-May-14 18:00N 58°56' E 011°10'0 0.0
2018-May-14 17:30N 58°56' E 011°10'0 0.0
2018-May-14 17:00N 58°56' E 011°10'0 0.0
2018-May-14 16:30N 58°56' E 011°10'0 0.0
2018-May-14 16:00N 58°56' E 011°10'0 0.0
2018-May-14 15:30N 58°56' E 011°10'0 0.0
2018-May-14 15:00N 58°56' E 011°10'0 0.0
2018-May-14 14:30N 58°56' E 011°10'0 0.0
2018-May-14 14:00N 58°56' E 011°10'0 0.0
2018-May-14 13:30N 58°56' E 011°10'0 0.0
2018-May-14 13:00N 58°56' E 011°10'0 0.0
2018-May-14 12:30N 58°56' E 011°10'0 0.0
2018-May-14 12:00N 58°56' E 011°10'0 0.0
2018-May-14 11:30N 58°56' E 011°10'0 0.0
2018-May-14 11:00N 58°56' E 011°10'0 0.0
2018-May-14 10:30N 58°56' E 011°10'0 0.0
2018-May-14 10:00N 58°56' E 011°10'0 0.0
2018-May-14 09:30N 58°56' E 011°10'0 0.0
2018-May-14 09:00N 58°56' E 011°10'0 0.0
2018-May-14 08:30N 58°56' E 011°10'0 0.0
2018-May-14 08:00N 58°56' E 011°10'0 0.0
2018-May-14 07:30N 58°56' E 011°10'0 0.0
2018-May-14 07:00N 58°56' E 011°10'0 0.0
2018-May-14 06:30N 58°56' E 011°10'0 0.0
2018-May-14 05:58N 58°56' E 011°10'0 0.1
2018-May-14 05:30N 58°56' E 011°10'0 0.0
2018-May-14 05:00N 58°56' E 011°10'0 0.0
2018-May-14 04:30N 58°56' E 011°10'0 0.0
2018-May-14 04:00N 58°56' E 011°10'0 0.0
2018-May-14 03:30N 58°56' E 011°10'0 0.0
2018-May-14 02:59N 58°56' E 011°10'0 0.0
2018-May-14 02:30N 58°56' E 011°10'0 0.0
2018-May-14 02:00N 58°56' E 011°10'0 0.0
2018-May-14 01:30N 58°56' E 011°10'0 0.0
2018-May-14 01:00N 58°56' E 011°10'0 0.0
2018-May-14 00:30N 58°56' E 011°10'0 0.0
2018-May-14 00:00N 58°56' E 011°10'0 0.0
2018-May-13 23:30N 58°56' E 011°10'0 0.0
2018-May-13 23:00N 58°56' E 011°10'0 0.0
2018-May-13 22:30N 58°56' E 011°10'0 0.0
2018-May-13 22:00N 58°56' E 011°10'0 0.0
2018-May-13 21:29N 58°56' E 011°10'0 0.0
2018-May-13 20:59N 58°56' E 011°10'0 0.0
2018-May-13 20:30N 58°56' E 011°10'0 0.0
2018-May-13 20:00N 58°56' E 011°10'0 0.0
2018-May-13 19:30N 58°56' E 011°10'0 0.0
2018-May-13 19:00N 58°56' E 011°10'0 0.0
2018-May-13 18:30N 58°56' E 011°10'0 0.0
2018-May-13 18:00N 58°56' E 011°10'0 0.0
2018-May-13 17:30N 58°56' E 011°10'0 0.0
2018-May-13 17:00N 58°56' E 011°10'0 0.0
2018-May-13 16:30N 58°56' E 011°10'0 0.0
2018-May-13 15:59N 58°56' E 011°10'0 0.0
2018-May-13 15:30N 58°56' E 011°10'0 0.0
2018-May-13 15:00N 58°56' E 011°10'0 0.0
2018-May-13 14:30N 58°56' E 011°10'0 0.0
2018-May-13 14:00N 58°56' E 011°10'0 0.0
2018-May-13 13:30N 58°56' E 011°10'0 0.0
2018-May-13 13:00N 58°56' E 011°10'0 0.0
2018-May-13 12:30N 58°56' E 011°10'0 0.0
2018-May-13 11:59N 58°56' E 011°10'0 0.0
2018-May-13 11:30N 58°56' E 011°10'0 0.0
2018-May-13 11:00N 58°56' E 011°10'0 0.0
2018-May-13 10:30N 58°56' E 011°10'0 0.0
2018-May-13 10:00N 58°56' E 011°10'0 0.0
2018-May-13 09:30N 58°56' E 011°10'0 0.0
2018-May-13 09:00N 58°56' E 011°10'0 0.0
2018-May-13 08:30N 58°56' E 011°10'0 0.0
2018-May-13 08:00N 58°56' E 011°10'0 0.0
2018-May-13 07:30N 58°56' E 011°10'0 0.0
2018-May-13 07:00N 58°56' E 011°10'0 0.0
2018-May-13 06:30N 58°56' E 011°10'0 0.0
2018-May-13 06:00N 58°56' E 011°10'0 0.0
2018-May-13 05:30N 58°56' E 011°10'0 0.0
2018-May-13 05:00N 58°56' E 011°10'0 0.0
2018-May-13 04:30N 58°56' E 011°10'0 0.0
2018-May-13 04:00N 58°56' E 011°10'0 0.0
2018-May-13 03:30N 58°56' E 011°10'0 0.0
2018-May-13 03:00N 58°56' E 011°10'0 0.0
2018-May-13 02:30N 58°56' E 011°10'0 0.0
2018-May-13 02:00N 58°56' E 011°10'0 0.0
2018-May-13 01:30N 58°56' E 011°10'0 0.0
2018-May-13 01:00N 58°56' E 011°10'0 0.0
2018-May-13 00:30N 58°56' E 011°10'0 0.0
2018-May-13 00:00N 58°56' E 011°10'0 0.0
2018-May-12 23:30N 58°56' E 011°10'0 0.0
2018-May-12 23:00N 58°56' E 011°10'0 0.0
2018-May-12 22:30N 58°56' E 011°10'0 0.0
2018-May-12 22:00N 58°56' E 011°10'0 0.0
2018-May-12 21:30N 58°56' E 011°10'0 0.0
2018-May-12 21:00N 58°56' E 011°10'0 0.0
2018-May-12 20:30N 58°56' E 011°10'0 0.0
2018-May-12 20:00N 58°56' E 011°10'0 0.0
2018-May-12 19:30N 58°56' E 011°10'0 0.0
2018-May-12 19:00N 58°56' E 011°10'0 0.0
2018-May-12 18:28N 58°56' E 011°10'0 0.0
2018-May-12 18:00N 58°56' E 011°10'0 0.0
2018-May-12 17:30N 58°56' E 011°10'0 0.0
2018-May-12 17:00N 58°56' E 011°10'0 0.0
2018-May-12 16:30N 58°56' E 011°10'0 0.0
2018-May-12 16:00N 58°56' E 011°10'0 0.0
2018-May-12 15:30N 58°56' E 011°10'0 0.0
2018-May-12 15:00N 58°56' E 011°10'0 0.0
2018-May-12 14:30N 58°56' E 011°10'0 0.0
2018-May-12 14:00N 58°56' E 011°10'0 0.0
2018-May-12 13:30N 58°56' E 011°10'0 0.0
2018-May-12 13:00N 58°56' E 011°10'0 0.0
2018-May-12 12:30N 58°56' E 011°10'  

Dump ship's entire track history